Hiyodori — JD2366 — position and weather

sailwx.info

Track history (hours):
 
Tides and Currents Weather Stations Pressure Air Temp Water Temp Dewpoint Dewpoint Depression Visibility Wind Speed Wind Dir Waves Ship Positions

Hiyodori

Last reported at 2016-Apr-30 10:32 UTC. Time now 2016-May-03 12:31 UTC.
Position N 35°03' E 139°33'.

Length 88 m; draft 3.6 m.

Type: Cargo ship. MMSI: 431000132.

Date/timePositionNaut miles runAvg speedWind from/ knotsBaromVisibWave heightAir tempDewpointWater temp
2016-Apr-30 10:32N 35°03' E 139°33'1010.6
2016-Apr-30 09:33N 35°09' E 139°43'10 9.8
2016-Apr-30 08:33N 35°18' E 139°43'8 7.8
2016-Apr-30 07:31N 35°26' E 139°41'1 1.0
2016-Apr-30 06:33N 35°27' E 139°42'1 0.9
2016-Apr-30 05:34N 35°27' E 139°43'0 0.0
2016-Apr-30 04:34N 35°27' E 139°43'0 0.0
2016-Apr-30 03:33N 35°27' E 139°43'0 0.1
2016-Apr-30 02:33N 35°27' E 139°43'0 0.0
2016-Apr-30 01:34N 35°27' E 139°43'0 0.0
2016-Apr-30 00:34N 35°27' E 139°43'0 0.1
2016-Apr-29 23:34N 35°27' E 139°43'0 0.1
2016-Apr-29 22:33N 35°27' E 139°43'0 0.0
2016-Apr-29 21:34N 35°27' E 139°43'0 0.0
2016-Apr-29 20:33N 35°27' E 139°43'0 0.0
2016-Apr-29 19:33N 35°27' E 139°43'0 0.0
2016-Apr-29 18:34N 35°27' E 139°43'0 0.1
2016-Apr-29 17:33N 35°27' E 139°43'0 0.0
2016-Apr-29 16:34N 35°27' E 139°43'0 0.0
2016-Apr-29 15:33N 35°27' E 139°43'0 0.0
2016-Apr-29 14:34N 35°27' E 139°43'0 0.0
2016-Apr-29 13:33N 35°27' E 139°43'0 0.1
2016-Apr-29 12:34N 35°27' E 139°43'0 0.0
2016-Apr-29 11:33N 35°27' E 139°43'0 0.0
2016-Apr-29 10:33N 35°27' E 139°43'0 0.0
2016-Apr-29 09:33N 35°27' E 139°43'0 0.0
2016-Apr-29 08:34N 35°27' E 139°43'0 0.1
2016-Apr-29 07:33N 35°27' E 139°43'3 2.9
2016-Apr-29 06:32N 35°24' E 139°41'0 0.1
2016-Apr-29 05:33N 35°24' E 139°41'2 2.0
2016-Apr-29 04:31N 35°26' E 139°41'0 0.0
2016-Apr-29 03:31N 35°26' E 139°41'2 1.8
2016-Apr-29 02:34N 35°26' E 139°43'4 3.6
2016-Apr-29 01:33N 35°23' E 139°43'1010.3
2016-Apr-29 00:33N 35°13' E 139°47'10 9.7
2016-Apr-28 23:32N 35°04' E 139°42'12 0.3
2016-Apr-27 11:17N 34°58' E 139°29'1112.3
2016-Apr-27 10:21N 35°05' E 139°40'911.8
2016-Apr-27 09:34N 35°13' E 139°46'1111.3
2016-Apr-27 08:34N 35°24' E 139°43'1110.8
2016-Apr-27 07:33N 35°33' E 139°50'4 3.9
2016-Apr-27 06:32N 35°36' E 139°46'0 0.0
2016-Apr-27 05:32N 35°36' E 139°46'3 2.6
2016-Apr-27 04:33N 35°34' E 139°49'5 5.2
2016-Apr-27 03:33N 35°30' E 139°46'1 0.8
2016-Apr-27 02:33N 35°29' E 139°45'4 4.0
2016-Apr-27 01:33N 35°25' E 139°46'1010.3
2016-Apr-27 00:33N 35°15' E 139°47'247 6.2
2016-Apr-25 09:03N 34°02' E 135°00'612.2
2016-Apr-25 08:33N 34°08' E 134°59'1313.3
2016-Apr-25 07:33N 34°21' E 135°00'1313.2
2016-Apr-25 06:33N 34°31' E 135°12'9 8.8
2016-Apr-25 05:33N 34°39' E 135°15'2 1.8
2016-Apr-25 04:33N 34°41' E 135°16'1 0.8
2016-Apr-25 03:33N 34°41' E 135°17'0 0.0
2016-Apr-25 02:33N 34°41' E 135°17'0 0.2
2016-Apr-25 01:33N 34°41' E 135°17'3 2.5
2016-Apr-25 00:33N 34°40' E 135°14'0 0.0
2016-Apr-24 23:33N 34°40' E 135°14'2 1.9
2016-Apr-24 22:32N 34°41' E 135°13'0 0.0
2016-Apr-24 21:33N 34°41' E 135°13'0 0.0
2016-Apr-24 20:33N 34°41' E 135°13'0 0.0
2016-Apr-24 19:33N 34°41' E 135°13'0 0.0
2016-Apr-24 18:33N 34°41' E 135°13'0 0.0
2016-Apr-24 17:33N 34°41' E 135°13'0 0.0
2016-Apr-24 16:33N 34°41' E 135°13'0 0.0
2016-Apr-24 15:33N 34°41' E 135°13'0 0.0
2016-Apr-24 14:32N 34°41' E 135°13'0 0.0
2016-Apr-24 13:33N 34°41' E 135°13'0 0.0
2016-Apr-24 12:33N 34°41' E 135°13'0 0.0
2016-Apr-24 11:33N 34°41' E 135°13'0 0.0
2016-Apr-24 10:33N 34°41' E 135°13'0 0.0
2016-Apr-24 09:33N 34°41' E 135°13'0 0.0
2016-Apr-24 08:33N 34°41' E 135°13'0 0.0
2016-Apr-24 07:33N 34°41' E 135°13'0 0.0
2016-Apr-24 06:33N 34°41' E 135°13'0 0.0
2016-Apr-24 05:33N 34°41' E 135°13'0 0.0
2016-Apr-24 04:33N 34°41' E 135°13'0 0.0
2016-Apr-24 03:33N 34°41' E 135°13'0 0.0
2016-Apr-24 02:33N 34°41' E 135°13'0 0.0
2016-Apr-24 01:33N 34°41' E 135°13'3 3.5
2016-Apr-24 00:33N 34°39' E 135°16'1212.3
2016-Apr-23 23:33N 34°28' E 135°09'1313.4
2016-Apr-23 22:33N 34°17' E 134°59'1413.6
2016-Apr-23 21:33N 34°04' E 135°01'227 6.9
2016-Apr-22 12:32N 34°59' E 139°28'1312.3
2016-Apr-22 11:30N 35°06' E 139°41'1111.6
2016-Apr-22 10:34N 35°16' E 139°45'1110.6
2016-Apr-22 09:33N 35°27' E 139°47'9 9.2
2016-Apr-22 08:33N 35°36' E 139°46'0 0.2
2016-Apr-22 07:33N 35°36' E 139°46'0 0.0
2016-Apr-22 06:33N 35°36' E 139°46'4 3.9
2016-Apr-22 05:33N 35°34' E 139°50'5 5.4
2016-Apr-22 04:33N 35°29' E 139°46'0 0.4
2016-Apr-22 03:33N 35°29' E 139°45'0 0.0
2016-Apr-22 02:33N 35°29' E 139°45'1110.6
2016-Apr-22 01:33N 35°19' E 139°44'1311.9
2016-Apr-22 00:30N 35°06' E 139°45'16 0.5
2016-Apr-20 17:05N 34°59' E 139°27'611.7
2016-Apr-20 16:33N 35°02' E 139°34'1212.3
2016-Apr-20 15:33N 35°11' E 139°45'1111.5
2016-Apr-20 14:33N 35°22' E 139°42'4 4.5
2016-Apr-20 13:33N 35°26' E 139°41'0 0.0
2016-Apr-20 12:33N 35°26' E 139°41'0 0.0
2016-Apr-20 11:33N 35°26' E 139°41'0 0.1
2016-Apr-20 10:33N 35°26' E 139°41'  
Track history (hours):
 
Tides and Currents Weather Stations Pressure Air Temp Water Temp Dewpoint Dewpoint Depression Visibility Wind Speed Wind Dir Waves Ship Positions

Hiyodori

Last reported at 2016-Apr-30 10:32 UTC. Time now 2016-May-03 12:31 UTC.
Position N 35°03' E 139°33'.

Length 88 m; draft 3.6 m.

Type: Cargo ship. MMSI: 431000132.

Date/timePositionNaut miles runAvg speedWind from/ knotsBaromVisibWave heightAir tempDewpointWater temp
2016-Apr-30 10:32N 35°03' E 139°33'1010.6
2016-Apr-30 09:33N 35°09' E 139°43'10 9.8
2016-Apr-30 08:33N 35°18' E 139°43'8 7.8
2016-Apr-30 07:31N 35°26' E 139°41'1 1.0
2016-Apr-30 06:33N 35°27' E 139°42'1 0.9
2016-Apr-30 05:34N 35°27' E 139°43'0 0.0
2016-Apr-30 04:34N 35°27' E 139°43'0 0.0
2016-Apr-30 03:33N 35°27' E 139°43'0 0.1
2016-Apr-30 02:33N 35°27' E 139°43'0 0.0
2016-Apr-30 01:34N 35°27' E 139°43'0 0.0
2016-Apr-30 00:34N 35°27' E 139°43'0 0.1
2016-Apr-29 23:34N 35°27' E 139°43'0 0.1
2016-Apr-29 22:33N 35°27' E 139°43'0 0.0
2016-Apr-29 21:34N 35°27' E 139°43'0 0.0
2016-Apr-29 20:33N 35°27' E 139°43'0 0.0
2016-Apr-29 19:33N 35°27' E 139°43'0 0.0
2016-Apr-29 18:34N 35°27' E 139°43'0 0.1
2016-Apr-29 17:33N 35°27' E 139°43'0 0.0
2016-Apr-29 16:34N 35°27' E 139°43'0 0.0
2016-Apr-29 15:33N 35°27' E 139°43'0 0.0
2016-Apr-29 14:34N 35°27' E 139°43'0 0.0
2016-Apr-29 13:33N 35°27' E 139°43'0 0.1
2016-Apr-29 12:34N 35°27' E 139°43'0 0.0
2016-Apr-29 11:33N 35°27' E 139°43'0 0.0
2016-Apr-29 10:33N 35°27' E 139°43'0 0.0
2016-Apr-29 09:33N 35°27' E 139°43'0 0.0
2016-Apr-29 08:34N 35°27' E 139°43'0 0.1
2016-Apr-29 07:33N 35°27' E 139°43'3 2.9
2016-Apr-29 06:32N 35°24' E 139°41'0 0.1
2016-Apr-29 05:33N 35°24' E 139°41'2 2.0
2016-Apr-29 04:31N 35°26' E 139°41'0 0.0
2016-Apr-29 03:31N 35°26' E 139°41'2 1.8
2016-Apr-29 02:34N 35°26' E 139°43'4 3.6
2016-Apr-29 01:33N 35°23' E 139°43'1010.3
2016-Apr-29 00:33N 35°13' E 139°47'10 9.7
2016-Apr-28 23:32N 35°04' E 139°42'12 0.3
2016-Apr-27 11:17N 34°58' E 139°29'1112.3
2016-Apr-27 10:21N 35°05' E 139°40'911.8
2016-Apr-27 09:34N 35°13' E 139°46'1111.3
2016-Apr-27 08:34N 35°24' E 139°43'1110.8
2016-Apr-27 07:33N 35°33' E 139°50'4 3.9
2016-Apr-27 06:32N 35°36' E 139°46'0 0.0
2016-Apr-27 05:32N 35°36' E 139°46'3 2.6
2016-Apr-27 04:33N 35°34' E 139°49'5 5.2
2016-Apr-27 03:33N 35°30' E 139°46'1 0.8
2016-Apr-27 02:33N 35°29' E 139°45'4 4.0
2016-Apr-27 01:33N 35°25' E 139°46'1010.3
2016-Apr-27 00:33N 35°15' E 139°47'247 6.2
2016-Apr-25 09:03N 34°02' E 135°00'612.2
2016-Apr-25 08:33N 34°08' E 134°59'1313.3
2016-Apr-25 07:33N 34°21' E 135°00'1313.2
2016-Apr-25 06:33N 34°31' E 135°12'9 8.8
2016-Apr-25 05:33N 34°39' E 135°15'2 1.8
2016-Apr-25 04:33N 34°41' E 135°16'1 0.8
2016-Apr-25 03:33N 34°41' E 135°17'0 0.0
2016-Apr-25 02:33N 34°41' E 135°17'0 0.2
2016-Apr-25 01:33N 34°41' E 135°17'3 2.5
2016-Apr-25 00:33N 34°40' E 135°14'0 0.0
2016-Apr-24 23:33N 34°40' E 135°14'2 1.9
2016-Apr-24 22:32N 34°41' E 135°13'0 0.0
2016-Apr-24 21:33N 34°41' E 135°13'0 0.0
2016-Apr-24 20:33N 34°41' E 135°13'0 0.0
2016-Apr-24 19:33N 34°41' E 135°13'0 0.0
2016-Apr-24 18:33N 34°41' E 135°13'0 0.0
2016-Apr-24 17:33N 34°41' E 135°13'0 0.0
2016-Apr-24 16:33N 34°41' E 135°13'0 0.0
2016-Apr-24 15:33N 34°41' E 135°13'0 0.0
2016-Apr-24 14:32N 34°41' E 135°13'0 0.0
2016-Apr-24 13:33N 34°41' E 135°13'0 0.0
2016-Apr-24 12:33N 34°41' E 135°13'0 0.0
2016-Apr-24 11:33N 34°41' E 135°13'0 0.0
2016-Apr-24 10:33N 34°41' E 135°13'0 0.0
2016-Apr-24 09:33N 34°41' E 135°13'0 0.0
2016-Apr-24 08:33N 34°41' E 135°13'0 0.0
2016-Apr-24 07:33N 34°41' E 135°13'0 0.0
2016-Apr-24 06:33N 34°41' E 135°13'0 0.0
2016-Apr-24 05:33N 34°41' E 135°13'0 0.0
2016-Apr-24 04:33N 34°41' E 135°13'0 0.0
2016-Apr-24 03:33N 34°41' E 135°13'0 0.0
2016-Apr-24 02:33N 34°41' E 135°13'0 0.0
2016-Apr-24 01:33N 34°41' E 135°13'3 3.5
2016-Apr-24 00:33N 34°39' E 135°16'1212.3
2016-Apr-23 23:33N 34°28' E 135°09'1313.4
2016-Apr-23 22:33N 34°17' E 134°59'1413.6
2016-Apr-23 21:33N 34°04' E 135°01'227 6.9
2016-Apr-22 12:32N 34°59' E 139°28'1312.3
2016-Apr-22 11:30N 35°06' E 139°41'1111.6
2016-Apr-22 10:34N 35°16' E 139°45'1110.6
2016-Apr-22 09:33N 35°27' E 139°47'9 9.2
2016-Apr-22 08:33N 35°36' E 139°46'0 0.2
2016-Apr-22 07:33N 35°36' E 139°46'0 0.0
2016-Apr-22 06:33N 35°36' E 139°46'4 3.9
2016-Apr-22 05:33N 35°34' E 139°50'5 5.4
2016-Apr-22 04:33N 35°29' E 139°46'0 0.4
2016-Apr-22 03:33N 35°29' E 139°45'0 0.0
2016-Apr-22 02:33N 35°29' E 139°45'1110.6
2016-Apr-22 01:33N 35°19' E 139°44'1311.9
2016-Apr-22 00:30N 35°06' E 139°45'16 0.5
2016-Apr-20 17:05N 34°59' E 139°27'611.7
2016-Apr-20 16:33N 35°02' E 139°34'1212.3
2016-Apr-20 15:33N 35°11' E 139°45'1111.5
2016-Apr-20 14:33N 35°22' E 139°42'4 4.5
2016-Apr-20 13:33N 35°26' E 139°41'0 0.0
2016-Apr-20 12:33N 35°26' E 139°41'0 0.0
2016-Apr-20 11:33N 35°26' E 139°41'0 0.1
2016-Apr-20 10:33N 35°26' E 139°41'  

Dump ship's entire track history